Time;durP1;ratioP1;P1;durP2;ratioP2;P2;SDS_P1;SDS_P2;PMS_P1;PMS_P2;Temp;Humidity;BMP_temperature;BMP_pressure;BME280_temperature;BME280_humidity;BME280_pressure;Samples;Min_cycle;Max_cycle;Signal;HPM_P1;HPM_P2
2023/04/09 00:00:21;;;;;;;9.88;4.55;;;;;;;8.80;78.20;102690.00;5031891;27;96575;-30
2023/04/09 00:02:46;;;;;;;6.30;4.57;;;;;;;8.79;78.55;102680.13;5032703;28;96756;-30
2023/04/09 00:05:11;;;;;;;9.15;4.78;;;;;;;8.78;78.60;102682.88;5032085;27;107798;-31
2023/04/09 00:07:37;;;;;;;8.48;4.80;;;;;;;8.79;78.97;102685.53;5032139;27;99245;-30
2023/04/09 00:10:02;;;;;;;6.28;3.95;;;;;;;8.74;80.76;102682.03;5032597;27;96538;-30
2023/04/09 00:12:29;;;;;;;8.63;5.18;;;;;;;8.73;79.84;102683.00;5031570;28;96869;-31
2023/04/09 00:14:54;;;;;;;6.45;4.28;;;;;;;8.71;79.95;102680.31;5032035;27;99630;-30
2023/04/09 00:17:20;;;;;;;8.82;4.72;;;;;;;8.71;79.07;102679.44;5032470;28;97804;-30
2023/04/09 00:19:45;;;;;;;6.85;4.05;;;;;;;8.66;79.32;102679.53;5031396;28;96618;-30
2023/04/09 00:22:11;;;;;;;8.38;4.97;;;;;;;8.65;79.85;102682.25;5032071;27;96763;-30
2023/04/09 00:24:36;;;;;;;10.40;4.72;;;;;;;8.65;80.68;102679.56;5031990;27;99177;-29
2023/04/09 00:27:01;;;;;;;7.45;4.30;;;;;;;8.62;79.60;102675.13;5031836;28;108855;-30
2023/04/09 00:29:26;;;;;;;7.78;4.85;;;;;;;8.60;79.41;102682.38;5013997;28;96725;-29
2023/04/09 00:31:52;;;;;;;13.43;5.47;;;;;;;8.62;80.77;102671.53;5032340;27;96789;-30
2023/04/09 00:34:17;;;;;;;9.65;4.93;;;;;;;8.58;79.69;102667.13;5032097;28;97942;-30
2023/04/09 00:36:43;;;;;;;7.47;4.78;;;;;;;8.58;80.20;102669.84;5032400;27;97776;-30
2023/04/09 00:39:08;;;;;;;8.10;5.00;;;;;;;8.56;79.63;102664.50;5031948;28;96667;-31
2023/04/09 00:41:33;;;;;;;11.40;5.32;;;;;;;8.55;79.63;102662.69;5031650;28;103210;-31
2023/04/09 00:43:59;;;;;;;9.05;5.22;;;;;;;8.53;80.16;102664.53;5031558;27;106527;-30
2023/04/09 00:46:24;;;;;;;8.50;4.60;;;;;;;8.51;79.57;102661.00;5031648;28;110227;-30
2023/04/09 00:48:50;;;;;;;10.20;4.75;;;;;;;8.46;79.30;102657.50;5030630;28;96509;-30
2023/04/09 00:51:15;;;;;;;9.00;5.57;;;;;;;8.43;80.08;102658.47;5032028;28;96797;-31
2023/04/09 00:53:42;;;;;;;8.68;5.18;;;;;;;8.44;79.97;102659.38;5031769;27;98978;-30
2023/04/09 00:56:10;;;;;;;8.10;5.20;;;;;;;8.41;79.78;102657.59;5030444;28;99329;-31
2023/04/09 00:58:35;;;;;;;6.93;3.88;;;;;;;8.41;80.32;102660.31;5030439;28;96624;-30
2023/04/09 01:01:01;;;;;;;8.38;4.45;;;;;;;8.38;79.54;102649.56;5031995;27;96844;-30
2023/04/09 01:03:26;;;;;;;11.45;5.38;;;;;;;8.36;79.72;102656.81;5032039;27;97268;-30
2023/04/09 01:06:06;;;;;;;11.13;6.00;;;;;;;8.35;80.65;102646.94;5031231;28;99240;-30
2023/04/09 01:08:55;;;;;;;6.50;3.95;;;;;;;8.32;80.27;102647.03;5013267;28;97220;-30
2023/04/09 01:11:41;;;;;;;7.78;4.97;;;;;;;8.36;80.14;102648.69;5031622;28;97448;-32
2023/04/09 01:14:31;;;;;;;7.80;5.00;;;;;;;8.34;80.60;102655.94;5033680;28;100676;-30
2023/04/09 01:17:04;;;;;;;9.13;4.85;;;;;;;8.35;81.03;102654.16;5033783;27;100965;-30
2023/04/09 01:19:54;;;;;;;8.43;4.65;;;;;;;8.32;81.81;102649.72;5033727;28;96592;-30
2023/04/09 01:23:01;;;;;;;9.93;5.80;;;;;;;8.28;80.35;102648.88;5034520;28;96634;-30
2023/04/09 01:25:48;;;;;;;8.02;4.65;;;;;;;8.26;81.26;102655.25;5014923;27;98175;-30
2023/04/09 01:28:17;;;;;;;9.20;5.35;;;;;;;8.27;79.95;102659.72;5035241;27;97225;-30
2023/04/09 01:30:46;;;;;;;7.60;5.22;;;;;;;8.25;80.04;102651.66;5033194;27;96871;-30
2023/04/09 01:33:14;;;;;;;10.57;5.25;;;;;;;8.24;80.47;102657.09;5033543;28;96835;-30
2023/04/09 01:35:42;;;;;;;9.98;5.65;;;;;;;8.20;80.54;102650.88;5034175;28;99675;-31
2023/04/09 01:38:09;;;;;;;10.30;4.93;;;;;;;8.22;80.43;102657.16;5033200;28;101287;-30
2023/04/09 01:40:35;;;;;;;10.50;6.00;;;;;;;8.20;81.53;102653.59;5033450;28;96747;-29
2023/04/09 01:43:01;;;;;;;8.65;4.78;;;;;;;8.21;80.69;102658.03;5034488;27;96876;-30
2023/04/09 01:45:26;;;;;;;7.88;5.15;;;;;;;8.22;80.96;102648.13;5033198;28;101257;-31
2023/04/09 01:47:53;;;;;;;9.35;5.53;;;;;;;8.22;81.34;102650.81;5034735;27;97767;-29
2023/04/09 01:50:18;;;;;;;9.10;5.50;;;;;;;8.25;82.74;102654.38;5033136;28;96676;-30
2023/04/09 01:52:44;;;;;;;10.02;5.57;;;;;;;8.24;85.71;102660.66;5033657;28;96766;-33
2023/04/09 01:55:09;;;;;;;8.15;4.55;;;;;;;8.27;84.45;102660.63;5034578;28;98481;-30
2023/04/09 01:57:35;;;;;;;8.75;5.10;;;;;;;8.34;86.17;102663.16;5034625;27;97795;-30
2023/04/09 02:00:00;;;;;;;6.57;4.40;;;;;;;8.35;84.98;102654.16;5034055;27;96539;-31
2023/04/09 02:02:35;;;;;;;9.90;5.03;;;;;;;8.39;87.27;102658.53;5034588;27;96732;-30
2023/04/09 02:05:06;;;;;;;8.95;5.40;;;;;;;8.44;86.47;102662.97;5032970;28;100740;-30
2023/04/09 02:07:37;;;;;;;8.60;5.38;;;;;;;8.52;84.29;102661.91;5032980;28;100964;-30
2023/04/09 02:10:05;;;;;;;10.85;5.32;;;;;;;8.56;83.15;102659.09;5033023;28;98164;-30
2023/04/09 02:12:35;;;;;;;8.18;4.90;;;;;;;8.59;84.73;102658.13;5034162;27;96790;-30
2023/04/09 02:15:01;;;;;;;9.35;5.53;;;;;;;8.60;82.28;102647.25;5032877;28;101322;-30
2023/04/09 02:17:27;;;;;;;8.90;5.55;;;;;;;8.63;82.30;102652.59;5033030;28;101298;-30
2023/04/09 02:19:52;;;;;;;9.52;5.93;;;;;;;8.68;81.69;102647.09;5034299;27;96631;-30
2023/04/09 02:22:18;;;;;;;11.07;5.80;;;;;;;8.70;83.02;102654.22;5033064;27;96857;-30
2023/04/09 02:24:45;;;;;;;11.55;5.82;;;;;;;8.68;83.59;102644.41;5033281;27;99031;-31
2023/04/09 02:27:11;;;;;;;7.47;4.88;;;;;;;8.73;82.25;102655.97;5032261;28;100871;-30
2023/04/09 02:29:38;;;;;;;8.63;4.85;;;;;;;8.76;84.13;102644.19;5032603;27;96540;-31
2023/04/09 02:32:03;;;;;;;8.35;5.10;;;;;;;8.77;82.29;102651.38;5032791;28;96540;-30
2023/04/09 02:34:29;;;;;;;9.75;5.30;;;;;;;8.74;83.05;102635.25;5032751;28;97834;-30
2023/04/09 02:36:54;;;;;;;8.55;4.68;;;;;;;8.75;83.25;102627.09;5033265;28;115871;-30
2023/04/09 02:39:19;;;;;;;8.10;4.72;;;;;;;8.79;83.57;102639.59;5033732;27;104444;-31
2023/04/09 02:41:45;;;;;;;9.65;5.00;;;;;;;8.79;83.12;102639.59;5034041;28;96753;-30
2023/04/09 02:44:10;;;;;;;7.32;4.75;;;;;;;8.82;82.76;102639.53;5033925;27;97940;-30
2023/04/09 02:46:35;;;;;;;8.88;4.15;;;;;;;8.83;83.95;102635.88;5033941;27;97337;-30
2023/04/09 02:49:00;;;;;;;7.22;4.35;;;;;;;8.84;83.77;102629.56;5033305;28;108297;-30
2023/04/09 02:51:26;;;;;;;9.00;5.40;;;;;;;8.83;83.14;102630.47;5033724;27;96733;-31
2023/04/09 02:53:52;;;;;;;11.60;6.38;;;;;;;8.87;82.20;102623.19;5033554;27;97872;-31
2023/04/09 02:56:17;;;;;;;9.20;4.95;;;;;;;8.85;83.94;102627.75;5032150;28;101199;-30
2023/04/09 02:58:42;;;;;;;8.07;5.13;;;;;;;8.84;83.36;102620.56;5033479;28;101517;-30
2023/04/09 03:01:07;;;;;;;8.70;5.10;;;;;;;8.86;83.07;102627.69;5033479;27;96841;-30
2023/04/09 03:03:33;;;;;;;9.80;5.35;;;;;;;8.88;82.47;102623.13;5033618;27;97355;-30
2023/04/09 03:05:58;;;;;;;8.98;5.28;;;;;;;8.91;82.22;102622.16;5033898;27;98287;-30
2023/04/09 03:08:23;;;;;;;14.35;5.28;;;;;;;8.85;84.27;102623.22;5033886;27;96570;-30
2023/04/09 03:10:49;;;;;;;8.77;4.93;;;;;;;8.89;81.76;102616.81;5033209;27;100987;-30
2023/04/09 03:13:14;;;;;;;6.78;4.32;;;;;;;8.90;82.50;102613.19;5032785;28;99356;-30
2023/04/09 03:15:40;;;;;;;9.73;5.18;;;;;;;8.94;82.28;102619.41;5033130;27;98917;-30
2023/04/09 03:18:05;;;;;;;6.90;4.28;;;;;;;8.91;82.22;102617.69;5033381;27;96592;-30
2023/04/09 03:20:31;;;;;;;9.20;5.40;;;;;;;8.97;81.90;102613.03;5033797;27;96725;-30
2023/04/09 03:22:56;;;;;;;7.00;4.78;;;;;;;8.99;81.86;102614.78;5032870;27;97817;-30
2023/04/09 03:25:21;;;;;;;8.57;4.50;;;;;;;8.91;84.96;102606.88;5031312;28;101383;-31
2023/04/09 03:27:47;;;;;;;8.38;4.30;;;;;;;8.91;83.95;102600.56;5032873;27;96632;-30
2023/04/09 03:30:12;;;;;;;8.82;4.68;;;;;;;8.93;82.81;102596.88;5033710;27;96729;-31
2023/04/09 03:32:37;;;;;;;9.10;4.88;;;;;;;8.92;82.78;102595.13;5033015;28;100948;-30
2023/04/09 03:35:03;;;;;;;10.23;5.55;;;;;;;8.95;82.24;102595.97;5031835;27;97582;-31
2023/04/09 03:37:28;;;;;;;10.73;5.72;;;;;;;8.97;81.61;102584.19;5032514;27;96586;-30
2023/04/09 03:39:53;;;;;;;8.57;5.35;;;;;;;8.97;81.47;102586.88;5032900;27;97403;-31
2023/04/09 03:42:19;;;;;;;10.80;5.70;;;;;;;9.01;81.51;102591.28;5032069;28;119018;-29
2023/04/09 03:44:44;;;;;;;9.88;5.70;;;;;;;9.02;81.33;102584.06;5032606;27;99012;-30
2023/04/09 03:47:09;;;;;;;9.18;5.70;;;;;;;9.01;81.51;102585.88;5032843;27;96571;-30
2023/04/09 03:49:35;;;;;;;11.73;5.28;;;;;;;9.04;81.40;102584.91;5031441;28;96920;-32
2023/04/09 03:52:01;;;;;;;8.98;4.93;;;;;;;9.03;81.61;102584.00;5032575;28;99812;-30
2023/04/09 03:54:29;;;;;;;10.43;5.55;;;;;;;9.06;81.13;102589.34;5032949;28;97761;-30
2023/04/09 03:56:55;;;;;;;8.45;5.25;;;;;;;9.06;81.19;102591.16;5032781;27;96602;-31
2023/04/09 03:59:20;;;;;;;10.02;5.45;;;;;;;9.07;81.47;102588.41;5032901;27;96646;-30
2023/04/09 04:01:46;;;;;;;11.73;6.03;;;;;;;9.06;81.43;102585.75;5032150;28;97970;-30
2023/04/09 04:04:12;;;;;;;10.82;6.00;;;;;;;9.03;81.43;102584.00;5032439;27;99123;-30
2023/04/09 04:06:37;;;;;;;7.05;4.80;;;;;;;9.08;81.45;102592.00;5032715;27;96814;-30
2023/04/09 04:09:02;;;;;;;11.10;6.20;;;;;;;9.06;81.08;102581.25;5030984;27;96949;-29
2023/04/09 04:11:28;;;;;;;9.95;5.13;;;;;;;9.07;81.41;102582.13;5032445;28;97951;-30
2023/04/09 04:13:54;;;;;;;9.88;5.50;;;;;;;9.10;81.90;102587.44;5032836;28;97210;-30
2023/04/09 04:16:20;;;;;;;9.38;6.18;;;;;;;9.07;81.47;102572.19;5031086;28;96576;-30
2023/04/09 04:18:45;;;;;;;8.65;5.15;;;;;;;9.08;82.07;102583.88;5032871;27;96642;-30
2023/04/09 04:21:14;;;;;;;12.18;6.28;;;;;;;9.07;80.98;102574.88;5032575;28;101582;-30
2023/04/09 04:23:39;;;;;;;8.43;4.70;;;;;;;9.10;80.91;102580.19;5029924;28;100980;-30
2023/04/09 04:26:09;;;;;;;8.30;5.72;;;;;;;9.08;81.31;102570.38;5031757;28;96534;-30
2023/04/09 04:28:37;;;;;;;12.20;6.43;;;;;;;9.09;80.87;102570.34;5030587;28;96803;-29
2023/04/09 04:31:10;;;;;;;9.75;5.97;;;;;;;9.06;80.90;102561.44;5030648;28;101310;-30
2023/04/09 04:33:37;;;;;;;9.98;5.60;;;;;;;9.13;81.06;102576.56;5030618;27;101301;-30
2023/04/09 04:36:05;;;;;;;9.45;6.10;;;;;;;9.13;80.52;102571.16;5030595;28;96655;-30
2023/04/09 04:38:30;;;;;;;10.02;5.25;;;;;;;9.14;80.30;102571.09;5032304;27;96697;-30
2023/04/09 04:40:55;;;;;;;9.43;5.28;;;;;;;9.14;80.52;102568.38;5031851;27;97416;-30
2023/04/09 04:43:21;;;;;;;15.05;5.82;;;;;;;9.17;80.47;102575.53;5032305;27;104488;-30
2023/04/09 04:45:46;;;;;;;9.68;5.88;;;;;;;9.17;80.80;102575.53;5032641;27;96783;-32
2023/04/09 04:48:11;;;;;;;8.98;5.20;;;;;;;9.15;80.15;102571.97;5035551;28;99091;-31
2023/04/09 04:50:37;;;;;;;13.23;5.97;;;;;;;9.16;80.90;102581.00;5034428;28;112544;-30
2023/04/09 04:53:02;;;;;;;8.32;5.55;;;;;;;9.17;80.41;102583.63;5035601;28;100734;-30
2023/04/09 04:55:27;;;;;;;10.30;5.32;;;;;;;9.16;80.65;102575.59;5034323;28;96735;-30
2023/04/09 04:57:53;;;;;;;11.15;5.57;;;;;;;9.16;80.77;102589.97;5035602;27;96868;-30
2023/04/09 05:00:18;;;;;;;7.68;4.95;;;;;;;9.15;80.62;102585.47;5035316;27;99963;-30
2023/04/09 05:02:43;;;;;;;10.30;5.57;;;;;;;9.14;80.79;102587.31;5035567;27;97513;-30
2023/04/09 05:05:09;;;;;;;8.95;5.75;;;;;;;9.17;80.50;102598.97;5035403;27;96534;-30
2023/04/09 05:07:34;;;;;;;11.45;5.82;;;;;;;9.16;80.74;102595.38;5036046;28;96720;-30
2023/04/09 05:09:59;;;;;;;9.68;5.90;;;;;;;9.14;80.98;102603.53;5035188;28;97343;-30
2023/04/09 05:12:25;;;;;;;10.32;5.72;;;;;;;9.13;81.27;102603.59;5035269;27;97804;-30
2023/04/09 05:14:50;;;;;;;9.38;5.72;;;;;;;9.12;80.73;102596.41;5033473;28;96598;-30
2023/04/09 05:17:16;;;;;;;11.27;5.30;;;;;;;9.16;80.64;102594.50;5033940;28;96819;-30
2023/04/09 05:19:41;;;;;;;9.55;5.45;;;;;;;9.18;80.68;102600.78;5035275;27;98300;-30
2023/04/09 05:22:06;;;;;;;12.93;6.15;;;;;;;9.18;80.06;102607.06;5034643;27;99537;-30
2023/04/09 05:24:32;;;;;;;9.50;4.90;;;;;;;9.17;80.76;102591.75;5035479;27;96587;-30
2023/04/09 05:26:57;;;;;;;13.25;6.25;;;;;;;9.19;80.63;102591.72;5033626;27;96830;-32
2023/04/09 05:29:22;;;;;;;8.77;5.72;;;;;;;9.16;80.83;102597.22;5035079;27;98173;-31
2023/04/09 05:31:48;;;;;;;8.85;4.75;;;;;;;9.15;80.80;102585.47;5035338;27;97814;-31
2023/04/09 05:34:13;;;;;;;13.38;5.50;;;;;;;9.17;80.64;102588.16;5034834;27;96621;-30
2023/04/09 05:36:38;;;;;;;8.65;5.25;;;;;;;9.19;80.90;102595.28;5035063;27;96802;-30
2023/04/09 05:39:04;;;;;;;9.85;5.78;;;;;;;9.17;81.38;102586.34;5034184;27;99360;-31
2023/04/09 05:41:29;;;;;;;14.25;6.97;;;;;;;9.19;80.99;102600.69;5034679;27;99687;-29
2023/04/09 05:43:54;;;;;;;9.80;5.68;;;;;;;9.19;80.88;102598.00;5034754;27;96545;-30
2023/04/09 05:46:20;;;;;;;10.48;5.07;;;;;;;9.19;81.08;102595.28;5034972;28;96798;-30
2023/04/09 05:48:45;;;;;;;12.80;6.35;;;;;;;9.21;80.95;102597.97;5034493;27;99236;-30
2023/04/09 05:51:11;;;;;;;13.23;6.18;;;;;;;9.23;81.01;102602.41;5034186;27;99035;-30
2023/04/09 05:53:36;;;;;;;10.65;5.68;;;;;;;9.23;80.92;102601.53;5034904;27;96655;-30
2023/04/09 05:56:01;;;;;;;8.52;4.68;;;;;;;9.23;80.77;102594.28;5034967;27;96583;-30
2023/04/09 05:58:27;;;;;;;10.73;6.18;;;;;;;9.20;80.91;102602.50;5033668;27;97847;-30
2023/04/09 06:00:53;;;;;;;13.43;6.20;;;;;;;9.25;80.75;102605.97;5033125;28;101026;-30
2023/04/09 06:03:18;;;;;;;10.65;5.75;;;;;;;9.24;80.82;102604.16;5034205;27;96714;-31
2023/04/09 06:05:45;;;;;;;8.73;5.40;;;;;;;9.29;80.71;102604.03;5034084;27;97224;-30
2023/04/09 06:08:11;;;;;;;9.80;5.13;;;;;;;9.29;80.92;102599.50;5032852;28;100900;-30
2023/04/09 06:10:37;;;;;;;11.10;5.75;;;;;;;9.30;81.38;102598.59;5034011;28;99677;-30
2023/04/09 06:13:02;;;;;;;10.23;6.22;;;;;;;9.30;80.99;102600.41;5034302;27;96539;-30
2023/04/09 06:15:27;;;;;;;10.20;5.57;;;;;;;9.28;80.51;102599.56;5034334;27;96763;-29
2023/04/09 06:17:52;;;;;;;9.32;4.85;;;;;;;9.30;80.79;102598.59;5034216;27;99996;-30
2023/04/09 06:20:18;;;;;;;9.88;6.15;;;;;;;9.29;80.95;102594.09;5034382;27;99855;-29
2023/04/09 06:22:43;;;;;;;14.25;6.32;;;;;;;9.27;80.95;102597.78;5033823;27;96775;-30
2023/04/09 06:25:09;;;;;;;10.88;4.93;;;;;;;9.30;80.94;102601.31;5034460;27;96859;-32
2023/04/09 06:27:34;;;;;;;13.20;6.50;;;;;;;9.30;81.39;102603.13;5033375;27;97900;-30
2023/04/09 06:29:59;;;;;;;13.13;5.72;;;;;;;9.31;81.55;102613.88;5034003;27;98037;-30
2023/04/09 06:32:25;;;;;;;12.93;5.57;;;;;;;9.33;81.18;102614.72;5033999;28;96623;-30
2023/04/09 06:34:50;;;;;;;12.05;6.75;;;;;;;9.34;80.93;102616.53;5033838;27;96731;-31
2023/04/09 06:37:15;;;;;;;11.98;6.40;;;;;;;9.34;82.27;102612.91;5034173;27;97323;-30
2023/04/09 06:39:41;;;;;;;11.50;5.18;;;;;;;9.31;82.39;102621.09;5033961;27;97815;-31
2023/04/09 06:42:06;;;;;;;9.93;5.55;;;;;;;9.31;81.38;102624.69;5033890;27;96940;-30
2023/04/09 06:44:34;;;;;;;13.40;6.35;;;;;;;9.32;80.76;102617.50;5034469;28;96845;-30
2023/04/09 06:47:01;;;;;;;10.50;5.25;;;;;;;9.32;81.37;102618.38;5033557;27;99854;-30
2023/04/09 06:49:26;;;;;;;12.68;5.70;;;;;;;9.32;81.76;102618.38;5033698;28;97886;-30
2023/04/09 06:51:52;;;;;;;12.23;6.50;;;;;;;9.38;81.17;102621.84;5033373;27;96564;-30
2023/04/09 06:54:19;;;;;;;14.57;6.38;;;;;;;9.34;80.95;102610.19;5033613;27;96908;-30
2023/04/09 06:56:44;;;;;;;10.48;5.68;;;;;;;9.39;80.95;102612.78;5032253;28;101367;-32
2023/04/09 06:59:10;;;;;;;12.45;6.70;;;;;;;9.41;80.87;102614.50;5033515;27;98888;-31
2023/04/09 07:01:36;;;;;;;11.30;6.32;;;;;;;9.44;81.12;102613.53;5032352;28;96780;-30
2023/04/09 07:04:02;;;;;;;14.75;6.32;;;;;;;9.40;81.35;102612.75;5031968;28;96865;-30
2023/04/09 07:06:27;;;;;;;13.93;5.75;;;;;;;9.40;82.07;102611.88;5033309;27;98901;-32
2023/04/09 07:08:52;;;;;;;15.40;6.47;;;;;;;9.41;81.44;102619.03;5033681;27;97234;-31
2023/04/09 07:11:17;;;;;;;20.25;7.07;;;;;;;9.45;81.64;102628.84;5033130;27;96591;-30
2023/04/09 07:13:43;;;;;;;17.50;8.35;;;;;;;9.45;81.03;102620.72;5033581;27;96768;-32
2023/04/09 07:16:08;;;;;;;17.75;8.07;;;;;;;9.45;80.88;102612.63;5032938;27;97920;-30
2023/04/09 07:18:33;;;;;;;15.48;7.05;;;;;;;9.46;81.12;102617.06;5033515;27;97680;-30
2023/04/09 07:20:59;;;;;;;16.80;7.65;;;;;;;9.49;80.80;102622.44;5033498;27;96614;-30
2023/04/09 07:23:24;;;;;;;15.25;7.50;;;;;;;9.50;80.80;102624.19;5032557;27;96845;-29
2023/04/09 07:25:50;;;;;;;15.43;7.90;;;;;;;9.47;81.30;102616.16;5031749;28;101683;-31
2023/04/09 07:28:15;;;;;;;18.17;7.20;;;;;;;9.46;80.74;102609.88;5032941;27;97945;-30
2023/04/09 07:30:41;;;;;;;13.98;7.57;;;;;;;9.49;81.29;102620.59;5033014;27;96547;-30
2023/04/09 07:33:06;;;;;;;44.28;19.15;;;;;;;9.52;80.48;102623.22;5033624;27;96762;-30
2023/04/09 07:35:33;;;;;;;29.52;13.35;;;;;;;9.49;81.36;102615.19;5033208;27;97286;-30
2023/04/09 07:37:58;;;;;;;17.85;8.70;;;;;;;9.52;80.22;102619.63;5033016;27;97820;-30
2023/04/09 07:40:24;;;;;;;17.40;7.82;;;;;;;9.52;81.31;102614.22;5032631;28;96523;-30
2023/04/09 07:42:49;;;;;;;15.77;6.50;;;;;;;9.49;81.54;102617.91;5032788;28;96784;-30
2023/04/09 07:45:15;;;;;;;18.77;7.63;;;;;;;9.51;81.18;102618.75;5032606;27;99650;-32
2023/04/09 07:47:41;;;;;;;13.63;7.05;;;;;;;9.53;81.41;102621.38;5032667;28;99437;-29
2023/04/09 07:50:07;;;;;;;13.98;6.80;;;;;;;9.49;82.18;102620.59;5031465;28;96660;-30
2023/04/09 07:52:33;;;;;;;16.40;8.20;;;;;;;9.48;81.96;102616.09;5031348;28;96902;-31
2023/04/09 07:54:58;;;;;;;18.25;8.98;;;;;;;9.51;81.55;102612.41;5032634;27;99307;-30
2023/04/09 07:57:23;;;;;;;16.77;7.60;;;;;;;9.55;80.80;102615.00;5033297;27;97909;-30
2023/04/09 07:59:49;;;;;;;18.95;7.00;;;;;;;9.56;81.26;102624.03;5032576;27;96583;-30
2023/04/09 08:02:15;;;;;;;13.70;7.57;;;;;;;9.54;80.80;102615.06;5033066;27;96747;-30
2023/04/09 08:04:40;;;;;;;21.98;8.30;;;;;;;9.55;80.87;102614.13;5032006;27;97852;-32
2023/04/09 08:07:06;;;;;;;20.73;8.45;;;;;;;9.59;80.65;102612.22;5031037;28;99430;-30
2023/04/09 08:09:32;;;;;;;11.15;6.85;;;;;;;9.54;81.20;102612.34;5031304;28;96593;-30
2023/04/09 08:11:57;;;;;;;20.85;8.93;;;;;;;9.56;80.53;102615.91;5032568;27;96548;-30
2023/04/09 08:14:22;;;;;;;12.77;7.38;;;;;;;9.55;80.87;102614.13;5032380;27;97902;-30
2023/04/09 08:16:49;;;;;;;21.40;8.88;;;;;;;9.56;80.66;102619.50;5032485;27;97249;-30
2023/04/09 08:19:15;;;;;;;17.08;9.32;;;;;;;9.58;80.42;102619.44;5032469;27;96457;-30
2023/04/09 08:21:47;;;;;;;23.23;8.32;;;;;;;9.61;80.18;102626.59;5030665;28;96812;-31
2023/04/09 08:24:13;;;;;;;21.52;7.25;;;;;;;9.57;80.62;102617.66;5032246;28;99501;-30
2023/04/09 08:26:43;;;;;;;18.08;8.70;;;;;;;9.59;80.47;102625.75;5031779;27;99409;-30
2023/04/09 08:29:10;;;;;;;17.48;7.68;;;;;;;9.61;80.12;102621.19;5031771;27;96544;-30
2023/04/09 08:31:36;;;;;;;16.25;7.32;;;;;;;9.60;80.12;102620.28;5030521;27;96848;-30
2023/04/09 08:34:02;;;;;;;22.20;8.10;;;;;;;9.63;80.13;102627.41;5032010;27;98759;-31
2023/04/09 08:36:27;;;;;;;17.20;7.65;;;;;;;9.57;80.01;102623.97;5032319;28;97299;-30
2023/04/09 08:38:54;;;;;;;19.92;9.68;;;;;;;9.65;80.00;102639.09;5032063;27;96615;-31
2023/04/09 08:41:24;;;;;;;18.40;8.23;;;;;;;9.64;80.07;102643.63;5030593;28;96861;-30
2023/04/09 08:43:51;;;;;;;20.20;9.35;;;;;;;9.56;79.60;102635.72;5031873;28;97833;-32
2023/04/09 08:46:19;;;;;;;18.08;9.23;;;;;;;9.60;80.26;102641.91;5030893;28;101354;-29
2023/04/09 08:48:47;;;;;;;22.48;9.55;;;;;;;9.61;80.16;102638.31;5030677;28;96639;-31
2023/04/09 08:51:17;;;;;;;19.98;9.65;;;;;;;9.63;79.99;102639.16;5030637;28;96804;-29
2023/04/09 08:53:51;;;;;;;20.73;10.13;;;;;;;9.64;80.05;102632.78;5029885;28;101174;-29
2023/04/09 08:56:16;;;;;;;22.10;10.38;;;;;;;9.72;79.66;102636.16;5031783;27;99472;-30
2023/04/09 08:58:43;;;;;;;23.05;12.85;;;;;;;9.68;80.11;102630.91;5031922;27;96647;-30
2023/04/09 09:01:19;;;;;;;26.95;14.82;;;;;;;9.73;79.52;102634.34;5030588;28;96793;-30
2023/04/09 09:03:56;;;;;;;22.08;10.93;;;;;;;9.70;80.05;102626.31;5031590;27;99311;-30
2023/04/09 09:06:26;;;;;;;25.27;11.30;;;;;;;9.73;79.93;102637.94;5030359;28;101317;-31
2023/04/09 09:09:04;;;;;;;28.85;12.43;;;;;;;9.74;79.89;102626.16;5030164;27;96648;-30
2023/04/09 09:11:30;;;;;;;25.05;12.80;;;;;;;9.79;79.52;102635.03;5032158;27;96604;-30
2023/04/09 09:14:10;;;;;;;27.55;13.75;;;;;;;9.82;79.67;102628.69;5031566;27;99269;-30
2023/04/09 09:16:41;;;;;;;20.77;10.57;;;;;;;9.82;79.92;102638.59;5031840;27;98327;-30
2023/04/09 09:19:07;;;;;;;27.65;14.15;;;;;;;9.78;79.40;102633.28;5029850;28;97259;-31
2023/04/09 09:21:33;;;;;;;22.75;11.23;;;;;;;9.79;79.85;102635.03;5031512;27;96768;-30
2023/04/09 09:23:58;;;;;;;20.17;10.98;;;;;;;9.78;79.54;102635.97;5029758;28;100666;-30
2023/04/09 09:26:29;;;;;;;24.77;12.13;;;;;;;9.89;79.17;102640.19;5031916;27;97328;-32
2023/04/09 09:28:59;;;;;;;22.00;10.95;;;;;;;9.91;79.17;102636.50;5031391;27;96504;-29
2023/04/09 09:31:25;;;;;;;22.63;11.15;;;;;;;9.98;79.25;102626.38;5030207;28;96852;-30
2023/04/09 09:33:50;;;;;;;18.42;8.88;;;;;;;10.00;78.97;102619.09;5033320;28;101399;-30
2023/04/09 09:36:32;;;;;;;22.40;9.27;;;;;;;10.00;78.99;102616.38;5035212;28;97923;-30
2023/04/09 09:39:02;;;;;;;18.88;8.68;;;;;;;10.05;79.33;102611.72;5033489;28;96717;-30
2023/04/09 09:41:28;;;;;;;19.00;9.05;;;;;;;10.10;78.64;102617.88;5033601;28;96813;-29
2023/04/09 09:43:54;;;;;;;19.00;9.27;;;;;;;10.15;78.74;102612.31;5034275;27;97927;-30
2023/04/09 09:46:20;;;;;;;29.58;13.77;;;;;;;10.23;78.27;102606.69;5034636;27;99632;-30
2023/04/09 09:48:46;;;;;;;22.40;12.20;;;;;;;10.35;77.82;102603.59;5033347;27;96595;-30
2023/04/09 09:51:13;;;;;;;18.83;10.00;;;;;;;10.38;77.71;102596.25;5034813;27;96833;-32
2023/04/09 09:53:43;;;;;;;23.33;11.82;;;;;;;10.49;77.45;102587.78;5033235;28;99285;-30
2023/04/09 09:56:17;;;;;;;21.17;11.13;;;;;;;10.60;77.17;102593.69;5033188;28;102075;-31
2023/04/09 09:58:57;;;;;;;17.77;9.63;;;;;;;10.79;76.99;102585.84;5033286;28;96710;-31
2023/04/09 10:01:25;;;;;;;21.92;9.13;;;;;;;10.94;76.69;102583.53;5033586;27;96620;-31
2023/04/09 10:03:52;;;;;;;19.65;9.05;;;;;;;11.17;76.45;102578.19;5032933;28;100927;-29
2023/04/09 10:06:17;;;;;;;16.75;8.27;;;;;;;11.46;75.34;102574.41;5032129;28;101209;-30
2023/04/09 10:08:46;;;;;;;24.15;10.57;;;;;;;11.47;74.79;102570.75;5034051;27;96660;-31
2023/04/09 10:11:11;;;;;;;20.02;9.07;;;;;;;11.47;74.32;102573.44;5032948;28;96829;-30
2023/04/09 10:13:41;;;;;;;22.80;10.65;;;;;;;11.51;74.37;102570.63;5034028;27;98025;-30
2023/04/09 10:16:07;;;;;;;20.77;9.52;;;;;;;11.66;74.31;102570.03;5032486;27;99766;-30
2023/04/09 10:18:33;;;;;;;22.25;11.25;;;;;;;11.68;73.19;102560.03;5032113;28;96893;-32
2023/04/09 10:21:06;;;;;;;17.85;9.35;;;;;;;11.69;73.94;102561.78;5033262;27;96913;-30
2023/04/09 10:23:40;;;;;;;17.30;8.13;;;;;;;11.60;73.64;102556.69;5032786;27;99529;-31
2023/04/09 10:26:06;;;;;;;18.23;8.75;;;;;;;11.65;73.14;102562.84;5012754;28;100827;-29
2023/04/09 10:28:32;;;;;;;17.85;8.32;;;;;;;11.73;73.70;102549.88;5012181;28;96721;-30
2023/04/09 10:30:58;;;;;;;23.50;9.32;;;;;;;11.73;73.37;102544.44;5031131;27;98303;-31
2023/04/09 10:33:26;;;;;;;16.77;8.60;;;;;;;11.79;73.21;102551.44;5033195;27;99538;-31
2023/04/09 10:36:01;;;;;;;20.23;9.45;;;;;;;11.84;73.44;102549.44;5032500;28;100804;-30
2023/04/09 10:38:44;;;;;;;18.17;8.15;;;;;;;11.84;73.03;102544.88;5032592;28;96702;-30
2023/04/09 10:41:29;;;;;;;;;;;;;;;11.87;73.01;102543.94;5034538;27;96735;-31
2023/04/09 10:43:56;;;;;;;13.00;6.35;;;;;;;11.97;72.64;102536.28;5032878;27;99674;-30
2023/04/09 10:46:30;;;;;;;19.70;8.98;;;;;;;12.10;72.29;102534.84;5032483;28;101013;-31
2023/04/09 10:49:12;;;;;;;20.95;9.93;;;;;;;12.32;72.22;102529.38;5032204;27;96744;-30
2023/04/09 10:51:38;;;;;;;29.45;13.85;;;;;;;12.60;71.38;102522.78;5032048;28;96993;-31
2023/04/09 10:54:33;;;;;;;26.10;13.75;;;;;;;12.76;70.47;102526.63;5031779;27;100978;-30
2023/04/09 10:57:10;;;;;;;51.38;23.63;;;;;;;12.83;69.94;102527.25;5024361;27;99422;-31
2023/04/09 10:59:39;;;;;;;61.53;29.63;;;;;;;12.85;69.72;102523.50;5042955;27;96643;-31
2023/04/09 11:02:07;;;;;;;35.75;19.42;;;;;;;13.04;69.92;102523.56;5042268;27;96950;-30
2023/04/09 11:04:45;;;;;;;26.35;12.82;;;;;;;13.56;67.55;102517.56;5032633;27;100890;-31
2023/04/09 11:07:14;;;;;;;14.60;8.30;;;;;;;13.78;66.96;102506.53;5031571;28;100947;-30
2023/04/09 11:09:40;;;;;;;17.02;9.57;;;;;;;14.21;65.53;102497.13;5031915;28;96710;-33
2023/04/09 11:12:06;;;;;;;18.73;8.90;;;;;;;14.50;64.17;102496.59;5031895;28;96818;-31
2023/04/09 11:14:32;;;;;;;16.27;8.48;;;;;;;15.00;64.14;102493.94;5031818;28;99701;-30
2023/04/09 11:17:02;;;;;;;16.67;8.38;;;;;;;15.09;63.64;102487.13;5032379;28;100950;-30
2023/04/09 11:19:27;;;;;;;19.02;9.10;;;;;;;15.16;61.80;102488.56;5030562;28;96754;-30
2023/04/09 11:21:52;;;;;;;16.65;8.13;;;;;;;15.16;62.83;102490.38;5031182;27;96844;-31
2023/04/09 11:24:18;;;;;;;17.02;9.27;;;;;;;15.17;62.56;102490.31;5028719;28;100875;-32